createdAt,value
2017-08-27T00:00:02.314Z,0
2017-08-27T00:01:03.844Z,0
2017-08-27T00:02:05.335Z,0
2017-08-27T00:03:06.849Z,0
2017-08-27T00:04:08.413Z,0
2017-08-27T00:05:09.941Z,0
2017-08-27T00:06:11.449Z,0
2017-08-27T00:07:12.948Z,0
2017-08-27T00:08:14.509Z,0
2017-08-27T00:09:16.040Z,0
2017-08-27T00:10:17.541Z,0
2017-08-27T00:11:19.026Z,0
2017-08-27T00:12:20.551Z,0
2017-08-27T00:13:22.179Z,0
2017-08-27T00:14:23.734Z,0
2017-08-27T00:15:25.256Z,0
2017-08-27T00:16:26.823Z,0
2017-08-27T00:17:28.370Z,0
2017-08-27T00:18:29.873Z,0
2017-08-27T00:19:31.375Z,0
2017-08-27T00:20:32.892Z,0
2017-08-27T00:21:34.548Z,0
2017-08-27T00:22:36.060Z,0
2017-08-27T00:23:37.600Z,0
2017-08-27T00:24:39.079Z,0
2017-08-27T00:25:40.604Z,0
2017-08-27T00:26:42.040Z,0
2017-08-27T00:27:43.522Z,0
2017-08-27T00:28:45.060Z,0
2017-08-27T00:29:46.490Z,0
2017-08-27T00:30:48.098Z,0
2017-08-27T00:31:49.614Z,0
2017-08-27T00:32:51.152Z,0
2017-08-27T00:33:52.674Z,0
2017-08-27T00:34:54.239Z,0
2017-08-27T00:35:55.838Z,0
2017-08-27T00:36:57.491Z,0
2017-08-27T00:37:58.963Z,0
2017-08-27T00:39:00.486Z,0
2017-08-27T00:40:02.101Z,0
2017-08-27T00:41:03.668Z,0
2017-08-27T00:42:05.180Z,0
2017-08-27T00:43:06.718Z,0
2017-08-27T00:44:08.160Z,0
2017-08-27T00:45:09.663Z,0
2017-08-27T00:46:11.254Z,0
2017-08-27T00:47:12.801Z,0
2017-08-27T00:48:14.359Z,0
2017-08-27T00:49:15.842Z,0
2017-08-27T00:50:17.399Z,0
2017-08-27T00:51:18.946Z,0
2017-08-27T00:52:20.470Z,0
2017-08-27T00:53:22.073Z,0
2017-08-27T00:54:23.568Z,0
2017-08-27T00:55:25.107Z,0
2017-08-27T00:56:26.618Z,0
2017-08-27T00:57:28.134Z,0
2017-08-27T00:58:29.669Z,0
2017-08-27T00:59:31.311Z,0
2017-08-27T01:00:32.824Z,0
2017-08-27T01:01:34.370Z,0
2017-08-27T01:02:35.900Z,0
2017-08-27T01:03:37.418Z,0
2017-08-27T01:04:38.954Z,0
2017-08-27T01:05:40.519Z,0
2017-08-27T01:06:42.073Z,0
2017-08-27T01:07:43.659Z,0
2017-08-27T01:08:45.222Z,0
2017-08-27T01:09:46.737Z,0
2017-08-27T01:10:48.247Z,0
2017-08-27T01:11:49.855Z,0
2017-08-27T01:12:51.405Z,0
2017-08-27T01:13:52.996Z,0
2017-08-27T01:14:54.475Z,0
2017-08-27T01:15:56.014Z,0
2017-08-27T01:16:57.599Z,0
2017-08-27T01:17:59.059Z,0
2017-08-27T01:19:00.580Z,0
2017-08-27T01:20:02.141Z,0
2017-08-27T01:21:03.686Z,0
2017-08-27T01:22:05.303Z,0
2017-08-27T01:23:06.805Z,0
2017-08-27T01:24:08.333Z,0
2017-08-27T01:25:09.835Z,0
2017-08-27T01:26:11.465Z,0
2017-08-27T01:27:12.982Z,0
2017-08-27T01:28:14.571Z,0
2017-08-27T01:29:16.138Z,0
2017-08-27T01:30:17.693Z,0
2017-08-27T01:31:19.214Z,0
2017-08-27T01:32:20.756Z,0
2017-08-27T01:33:22.255Z,0
2017-08-27T01:34:23.845Z,0
2017-08-27T01:35:25.365Z,0
2017-08-27T01:36:26.971Z,0
2017-08-27T01:37:28.525Z,0
2017-08-27T01:38:30.100Z,0
2017-08-27T01:39:31.708Z,0
2017-08-27T01:40:33.337Z,0
2017-08-27T01:41:34.947Z,0
2017-08-27T01:42:36.613Z,0
2017-08-27T01:43:38.085Z,0
2017-08-27T01:44:39.816Z,0
2017-08-27T01:45:41.430Z,0
2017-08-27T01:46:42.987Z,0
2017-08-27T01:47:44.543Z,0
2017-08-27T01:48:46.156Z,0
2017-08-27T01:49:47.743Z,0
2017-08-27T01:50:49.245Z,0
2017-08-27T01:51:50.818Z,0
2017-08-27T01:52:52.326Z,0
2017-08-27T01:53:53.905Z,0
2017-08-27T01:54:55.476Z,0
2017-08-27T01:55:57.013Z,0
2017-08-27T01:56:58.555Z,0
2017-08-27T01:58:00.194Z,0
2017-08-27T01:59:01.736Z,0
2017-08-27T02:00:03.304Z,0
2017-08-27T02:01:04.795Z,0
2017-08-27T02:02:06.361Z,0
2017-08-27T02:03:07.923Z,0
2017-08-27T02:04:09.413Z,0
2017-08-27T02:05:10.991Z,0
2017-08-27T02:06:12.518Z,0
2017-08-27T02:07:14.022Z,0
2017-08-27T02:08:15.541Z,0
2017-08-27T02:09:17.026Z,0
2017-08-27T02:10:18.582Z,0
2017-08-27T02:11:20.111Z,0
2017-08-27T02:12:21.699Z,0
2017-08-27T02:13:23.207Z,0
2017-08-27T02:14:24.715Z,0
2017-08-27T02:15:26.277Z,0
2017-08-27T02:16:27.792Z,0
2017-08-27T02:17:29.294Z,0
2017-08-27T02:18:30.853Z,0
2017-08-27T02:19:32.345Z,0
2017-08-27T02:20:33.904Z,0
2017-08-27T02:21:35.401Z,0
2017-08-27T02:22:36.946Z,0
2017-08-27T02:23:38.459Z,0
2017-08-27T02:24:40.034Z,0
2017-08-27T02:25:41.589Z,0
2017-08-27T02:26:43.252Z,0
2017-08-27T02:27:44.796Z,0
2017-08-27T02:28:46.378Z,0
2017-08-27T02:29:47.932Z,0
2017-08-27T02:30:49.594Z,0
2017-08-27T02:31:51.120Z,0
2017-08-27T02:32:52.714Z,0
2017-08-27T02:33:54.262Z,0
2017-08-27T02:34:55.797Z,0
2017-08-27T02:35:57.385Z,0
2017-08-27T02:36:58.993Z,0
2017-08-27T02:38:00.543Z,0
2017-08-27T02:39:02.068Z,0
2017-08-27T02:40:03.687Z,0
2017-08-27T02:41:05.209Z,0
2017-08-27T02:42:06.787Z,0
2017-08-27T02:43:08.316Z,0
2017-08-27T02:44:09.891Z,0
2017-08-27T02:45:11.459Z,0
2017-08-27T02:46:12.998Z,0
2017-08-27T02:47:14.641Z,0
2017-08-27T02:48:16.193Z,0
2017-08-27T02:49:17.729Z,0
2017-08-27T02:50:19.268Z,0
2017-08-27T02:51:20.867Z,0
2017-08-27T02:52:22.374Z,0
2017-08-27T02:53:23.929Z,0
2017-08-27T02:54:25.446Z,0
2017-08-27T02:55:27.090Z,0
2017-08-27T02:56:28.642Z,0
2017-08-27T02:57:30.178Z,0
2017-08-27T02:58:31.654Z,0
2017-08-27T02:59:33.212Z,0
2017-08-27T03:00:34.788Z,0
2017-08-27T03:01:36.326Z,0
2017-08-27T03:02:37.875Z,0
2017-08-27T03:03:39.644Z,0
2017-08-27T03:04:41.247Z,0
2017-08-27T03:05:42.845Z,0
2017-08-27T03:06:44.376Z,0
2017-08-27T03:07:45.987Z,0
2017-08-27T03:08:47.521Z,0
2017-08-27T03:09:49.176Z,0
2017-08-27T03:10:50.696Z,0
2017-08-27T03:11:52.246Z,0
2017-08-27T03:12:53.770Z,0
2017-08-27T03:13:55.414Z,0
2017-08-27T03:14:56.971Z,0
2017-08-27T03:15:58.553Z,0
2017-08-27T03:17:00.076Z,0
2017-08-27T03:18:01.617Z,0
2017-08-27T03:19:03.186Z,0
2017-08-27T03:20:04.846Z,0
2017-08-27T03:21:06.391Z,0
2017-08-27T03:22:08.033Z,0
2017-08-27T03:23:09.558Z,0
2017-08-27T03:24:11.205Z,0
2017-08-27T03:25:12.756Z,0
2017-08-27T03:26:14.413Z,0
2017-08-27T03:27:15.900Z,0
2017-08-27T03:28:17.374Z,0
2017-08-27T03:29:18.880Z,0
2017-08-27T03:30:20.418Z,0
2017-08-27T03:31:21.974Z,0
2017-08-27T03:32:23.524Z,0
2017-08-27T03:33:25.120Z,0
2017-08-27T03:34:26.647Z,0
2017-08-27T03:35:28.158Z,0
2017-08-27T03:36:29.724Z,0
2017-08-27T03:37:31.356Z,0
2017-08-27T03:38:32.866Z,0
2017-08-27T03:39:34.447Z,0
2017-08-27T03:40:35.994Z,0
2017-08-27T03:41:37.582Z,0
2017-08-27T03:42:39.170Z,0
2017-08-27T03:43:40.696Z,0
2017-08-27T03:44:42.241Z,0
2017-08-27T03:45:43.787Z,0
2017-08-27T03:46:45.313Z,0
2017-08-27T03:47:46.898Z,0
2017-08-27T03:48:48.417Z,0
2017-08-27T03:49:49.921Z,0
2017-08-27T03:50:51.446Z,0
2017-08-27T03:51:52.950Z,0
2017-08-27T03:52:54.546Z,0
2017-08-27T03:53:56.113Z,0
2017-08-27T03:54:57.749Z,0
2017-08-27T03:55:59.385Z,0
2017-08-27T03:57:00.931Z,0
2017-08-27T03:58:02.494Z,0
2017-08-27T03:59:04.171Z,0
2017-08-27T04:00:05.784Z,0
2017-08-27T04:01:07.301Z,0
2017-08-27T04:02:08.872Z,0
2017-08-27T04:03:10.471Z,0
2017-08-27T04:04:12.062Z,0
2017-08-27T04:05:13.580Z,0
2017-08-27T04:06:15.121Z,0
2017-08-27T04:07:16.600Z,0
2017-08-27T04:08:18.165Z,0
2017-08-27T04:09:19.726Z,0
2017-08-27T04:10:21.264Z,0
2017-08-27T04:11:22.801Z,0
2017-08-27T04:12:24.377Z,0
2017-08-27T04:13:25.903Z,0
2017-08-27T04:14:27.447Z,0
2017-08-27T04:15:29.004Z,0
2017-08-27T04:16:30.532Z,0
2017-08-27T04:17:32.177Z,0
2017-08-27T04:18:33.735Z,0
2017-08-27T04:19:35.293Z,0
2017-08-27T04:20:36.897Z,0
2017-08-27T04:21:38.407Z,0
2017-08-27T04:22:39.930Z,0
2017-08-27T04:23:41.426Z,0
2017-08-27T04:24:42.999Z,0
2017-08-27T04:25:44.508Z,0
2017-08-27T04:26:46.024Z,0
2017-08-27T04:27:47.601Z,5
2017-08-27T04:28:49.142Z,5
2017-08-27T04:29:50.708Z,5
2017-08-27T04:30:52.240Z,5
2017-08-27T04:31:53.807Z,5
2017-08-27T04:32:55.309Z,5
2017-08-27T04:33:56.901Z,5
2017-08-27T04:34:58.483Z,5
2017-08-27T04:36:00.073Z,5
2017-08-27T04:37:01.624Z,5
2017-08-27T04:38:03.182Z,11
2017-08-27T04:39:04.710Z,11
2017-08-27T04:40:06.266Z,11
2017-08-27T04:41:07.811Z,11
2017-08-27T04:42:09.376Z,11
2017-08-27T04:43:10.944Z,11
2017-08-27T04:44:12.521Z,11
2017-08-27T04:45:14.068Z,11
2017-08-27T04:46:15.541Z,11
2017-08-27T04:47:17.168Z,11
2017-08-27T04:48:18.705Z,11
2017-08-27T04:49:20.208Z,11
2017-08-27T04:50:21.672Z,16
2017-08-27T04:51:23.138Z,16
2017-08-27T04:52:24.736Z,16
2017-08-27T04:53:26.337Z,16
2017-08-27T04:54:27.852Z,16
2017-08-27T04:55:29.390Z,16
2017-08-27T04:56:31.003Z,16
2017-08-27T04:57:32.585Z,22
2017-08-27T04:58:34.099Z,22
2017-08-27T04:59:35.668Z,22
2017-08-27T05:00:37.217Z,22
2017-08-27T05:01:38.747Z,22
2017-08-27T05:02:40.255Z,22
2017-08-27T05:03:41.734Z,22
2017-08-27T05:04:43.330Z,28
2017-08-27T05:05:44.864Z,28
2017-08-27T05:06:46.371Z,28
2017-08-27T05:07:47.961Z,28
2017-08-27T05:08:49.544Z,28
2017-08-27T05:09:51.109Z,28
2017-08-27T05:10:52.638Z,33
2017-08-27T05:11:54.204Z,33
2017-08-27T05:12:55.683Z,33
2017-08-27T05:13:57.166Z,39
2017-08-27T05:14:58.725Z,39
2017-08-27T05:16:00.325Z,39
2017-08-27T05:17:01.828Z,39
2017-08-27T05:18:03.385Z,39
2017-08-27T05:19:04.982Z,45
2017-08-27T05:20:06.517Z,45
2017-08-27T05:21:08.168Z,45
2017-08-27T05:22:09.714Z,45
2017-08-27T05:23:11.242Z,45
2017-08-27T05:24:12.818Z,45
2017-08-27T05:25:14.418Z,50
2017-08-27T05:26:16.032Z,50
2017-08-27T05:27:17.595Z,56
2017-08-27T05:28:19.091Z,56
2017-08-27T05:29:20.698Z,56
2017-08-27T05:30:22.277Z,61
2017-08-27T05:31:23.803Z,61
2017-08-27T05:32:25.404Z,61
2017-08-27T05:33:26.947Z,61
2017-08-27T05:34:28.491Z,67
2017-08-27T05:35:30.091Z,67
2017-08-27T05:36:31.627Z,67
2017-08-27T05:37:33.192Z,67
2017-08-27T05:38:34.761Z,67
2017-08-27T05:39:36.329Z,73
2017-08-27T05:40:37.929Z,73
2017-08-27T05:41:39.479Z,73
2017-08-27T05:42:41.026Z,73
2017-08-27T05:43:42.559Z,73
2017-08-27T05:44:44.160Z,73
2017-08-27T05:45:45.640Z,73
2017-08-27T05:46:47.241Z,73
2017-08-27T05:47:48.768Z,78
2017-08-27T05:48:50.367Z,78
2017-08-27T05:49:51.989Z,78
2017-08-27T05:50:53.614Z,78
2017-08-27T05:51:55.143Z,78
2017-08-27T05:52:56.652Z,84
2017-08-27T05:53:58.269Z,84
2017-08-27T05:54:59.847Z,84
2017-08-27T05:56:01.411Z,84
2017-08-27T05:57:03.009Z,84
2017-08-27T05:58:04.526Z,84
2017-08-27T05:59:06.068Z,84
2017-08-27T06:00:07.639Z,90
2017-08-27T06:01:09.147Z,90
2017-08-27T06:02:10.641Z,101
2017-08-27T06:03:12.172Z,101
2017-08-27T06:04:13.737Z,95
2017-08-27T06:05:15.225Z,101
2017-08-27T06:06:16.922Z,101
2017-08-27T06:07:18.493Z,95
2017-08-27T06:08:20.088Z,84
2017-08-27T06:09:21.655Z,101
2017-08-27T06:10:23.222Z,101
2017-08-27T06:11:24.769Z,101
2017-08-27T06:12:26.336Z,106
2017-08-27T06:13:27.931Z,112
2017-08-27T06:14:29.477Z,112
2017-08-27T06:15:31.049Z,112
2017-08-27T06:16:32.767Z,106
2017-08-27T06:17:34.409Z,112
2017-08-27T06:18:35.918Z,106
2017-08-27T06:19:37.432Z,101
2017-08-27T06:20:39.020Z,112
2017-08-27T06:21:40.573Z,112
2017-08-27T06:22:42.083Z,112
2017-08-27T06:23:43.697Z,112
2017-08-27T06:24:46.757Z,112
2017-08-27T06:25:48.207Z,112
2017-08-27T06:26:49.619Z,118
2017-08-27T06:27:51.068Z,118
2017-08-27T06:28:52.476Z,118
2017-08-27T06:29:53.900Z,118
2017-08-27T06:30:55.312Z,118
2017-08-27T06:31:56.735Z,123
2017-08-27T06:32:58.170Z,129
2017-08-27T06:33:59.591Z,129
2017-08-27T06:35:01.051Z,135
2017-08-27T06:36:02.473Z,135
2017-08-27T06:37:03.883Z,129
2017-08-27T06:38:05.413Z,135
2017-08-27T06:39:06.841Z,140
2017-08-27T06:40:08.271Z,146
2017-08-27T06:41:09.678Z,146
2017-08-27T06:42:11.184Z,146
2017-08-27T06:43:12.568Z,146
2017-08-27T06:44:13.981Z,146
2017-08-27T06:45:15.397Z,146
2017-08-27T06:46:17.032Z,146
2017-08-27T06:47:18.573Z,151
2017-08-27T06:48:20.146Z,151
2017-08-27T06:49:21.747Z,157
2017-08-27T06:50:23.184Z,157
2017-08-27T06:51:24.625Z,157
2017-08-27T06:52:26.072Z,157
2017-08-27T06:53:27.610Z,157
2017-08-27T06:54:29.108Z,157
2017-08-27T06:55:30.523Z,163
2017-08-27T06:56:32.033Z,168
2017-08-27T06:57:33.552Z,168
2017-08-27T06:58:35.047Z,168
2017-08-27T06:59:36.571Z,163
2017-08-27T07:00:38.088Z,163
2017-08-27T07:01:39.642Z,163
2017-08-27T07:02:41.143Z,151
2017-08-27T07:03:42.656Z,157
2017-08-27T07:04:44.196Z,151
2017-08-27T07:05:45.754Z,168
2017-08-27T07:06:47.303Z,174
2017-08-27T07:07:48.892Z,168
2017-08-27T07:08:50.487Z,151
2017-08-27T07:09:52.074Z,157
2017-08-27T07:10:53.779Z,174
2017-08-27T07:11:55.402Z,191
2017-08-27T07:12:56.975Z,191
2017-08-27T07:13:58.741Z,208
2017-08-27T07:15:00.384Z,219
2017-08-27T07:16:02.167Z,219
2017-08-27T07:17:05.251Z,208
2017-08-27T07:18:07.359Z,208
2017-08-27T07:19:08.944Z,208
2017-08-27T07:20:10.676Z,208
2017-08-27T07:21:12.233Z,225
2017-08-27T07:22:14.020Z,230
2017-08-27T07:23:15.755Z,219
2017-08-27T07:24:17.251Z,225
2017-08-27T07:25:18.861Z,213
2017-08-27T07:26:20.432Z,225
2017-08-27T07:27:22.021Z,230
2017-08-27T07:28:23.971Z,230
2017-08-27T07:29:25.584Z,247
2017-08-27T07:30:27.117Z,241
2017-08-27T07:31:29.207Z,253
2017-08-27T07:32:30.924Z,258
2017-08-27T07:33:32.464Z,258
2017-08-27T07:34:34.034Z,253
2017-08-27T07:35:35.597Z,247
2017-08-27T07:36:37.142Z,236
2017-08-27T07:37:38.638Z,253
2017-08-27T07:38:40.190Z,241
2017-08-27T07:39:41.753Z,225
2017-08-27T07:40:43.243Z,236
2017-08-27T07:41:44.781Z,241
2017-08-27T07:42:46.428Z,225
2017-08-27T07:43:47.915Z,219
2017-08-27T07:44:49.518Z,219
2017-08-27T07:45:51.030Z,219
2017-08-27T07:46:52.607Z,219
2017-08-27T07:47:54.190Z,225
2017-08-27T07:48:55.760Z,225
2017-08-27T07:49:57.357Z,225
2017-08-27T07:50:58.909Z,219
2017-08-27T07:52:00.503Z,213
2017-08-27T07:53:02.172Z,213
2017-08-27T07:54:03.676Z,213
2017-08-27T07:55:05.261Z,219
2017-08-27T07:56:06.817Z,236
2017-08-27T07:57:08.409Z,213
2017-08-27T07:58:09.990Z,213
2017-08-27T07:59:11.739Z,225
2017-08-27T08:00:13.431Z,225
2017-08-27T08:01:14.978Z,213
2017-08-27T08:02:16.495Z,213
2017-08-27T08:03:18.007Z,247
2017-08-27T08:04:19.546Z,275
2017-08-27T08:05:21.173Z,292
2017-08-27T08:06:22.736Z,298
2017-08-27T08:07:24.301Z,309
2017-08-27T08:08:25.907Z,315
2017-08-27T08:09:27.472Z,320
2017-08-27T08:10:29.037Z,331
2017-08-27T08:11:30.602Z,348
2017-08-27T08:12:32.106Z,343
2017-08-27T08:13:33.719Z,365
2017-08-27T08:14:35.243Z,365
2017-08-27T08:15:36.816Z,365
2017-08-27T08:16:38.360Z,343
2017-08-27T08:17:39.962Z,343
2017-08-27T08:18:41.501Z,337
2017-08-27T08:19:43.154Z,303
2017-08-27T08:20:44.737Z,281
2017-08-27T08:21:46.266Z,298
2017-08-27T08:22:47.867Z,303
2017-08-27T08:23:49.398Z,270
2017-08-27T08:24:51.022Z,230
2017-08-27T08:25:52.614Z,213
2017-08-27T08:26:54.181Z,236
2017-08-27T08:27:55.801Z,219
2017-08-27T08:28:57.361Z,208
2017-08-27T08:29:58.960Z,191
2017-08-27T08:31:00.472Z,202
2017-08-27T08:32:01.982Z,253
2017-08-27T08:33:03.618Z,225
2017-08-27T08:34:05.187Z,241
2017-08-27T08:35:06.763Z,247
2017-08-27T08:36:08.394Z,298
2017-08-27T08:37:09.938Z,303
2017-08-27T08:38:11.491Z,298
2017-08-27T08:39:13.123Z,354
2017-08-27T08:40:14.628Z,354
2017-08-27T08:41:16.289Z,354
2017-08-27T08:42:17.865Z,343
2017-08-27T08:43:19.466Z,365
2017-08-27T08:44:20.976Z,388
2017-08-27T08:45:22.555Z,410
2017-08-27T08:46:24.122Z,421
2017-08-27T08:47:25.627Z,421
2017-08-27T08:48:27.190Z,421
2017-08-27T08:49:28.812Z,433
2017-08-27T08:50:30.383Z,433
2017-08-27T08:51:31.921Z,461
2017-08-27T08:52:33.479Z,405
2017-08-27T08:53:35.067Z,382
2017-08-27T08:54:36.644Z,320
2017-08-27T08:55:38.265Z,388
2017-08-27T08:56:39.914Z,320
2017-08-27T08:57:41.457Z,270
2017-08-27T08:58:43.137Z,303
2017-08-27T08:59:44.737Z,275
2017-08-27T09:00:46.239Z,309
2017-08-27T09:01:47.814Z,399
2017-08-27T09:02:49.445Z,461
2017-08-27T09:03:50.957Z,450
2017-08-27T09:04:52.536Z,444
2017-08-27T09:05:54.035Z,438
2017-08-27T09:06:55.649Z,511
2017-08-27T09:07:57.192Z,528
2017-08-27T09:08:58.810Z,500
2017-08-27T09:10:00.344Z,399
2017-08-27T09:11:01.961Z,455
2017-08-27T09:12:03.603Z,438
2017-08-27T09:13:05.197Z,393
2017-08-27T09:14:06.799Z,292
2017-08-27T09:15:08.319Z,275
2017-08-27T09:16:09.916Z,281
2017-08-27T09:17:11.618Z,320
2017-08-27T09:18:13.220Z,433
2017-08-27T09:19:14.789Z,489
2017-08-27T09:20:16.392Z,528
2017-08-27T09:21:17.983Z,523
2017-08-27T09:22:19.539Z,534
2017-08-27T09:23:21.088Z,534
2017-08-27T09:24:22.716Z,551
2017-08-27T09:25:24.296Z,590
2017-08-27T09:26:25.884Z,624
2017-08-27T09:27:27.461Z,618
2017-08-27T09:28:29.132Z,658
2017-08-27T09:29:30.706Z,596
2017-08-27T09:30:32.309Z,663
2017-08-27T09:31:33.882Z,573
2017-08-27T09:32:35.512Z,495
2017-08-27T09:33:37.165Z,540
2017-08-27T09:34:38.794Z,433
2017-08-27T09:35:40.397Z,427
2017-08-27T09:36:41.970Z,438
2017-08-27T09:37:43.585Z,337
2017-08-27T09:38:45.132Z,309
2017-08-27T09:39:46.691Z,264
2017-08-27T09:40:48.267Z,241
2017-08-27T09:41:49.833Z,253
2017-08-27T09:42:51.404Z,219
2017-08-27T09:43:52.987Z,258
2017-08-27T09:44:54.577Z,286
2017-08-27T09:45:56.122Z,292
2017-08-27T09:46:57.726Z,320
2017-08-27T09:47:59.276Z,365
2017-08-27T09:49:00.859Z,483
2017-08-27T09:50:02.557Z,421
2017-08-27T09:51:04.134Z,405
2017-08-27T09:52:05.789Z,438
2017-08-27T09:53:07.414Z,483
2017-08-27T09:54:09.065Z,450
2017-08-27T09:55:10.703Z,461
2017-08-27T09:56:12.238Z,545
2017-08-27T09:57:13.836Z,646
2017-08-27T09:58:15.378Z,511
2017-08-27T09:59:16.945Z,618
2017-08-27T10:00:18.502Z,624
2017-08-27T10:01:20.008Z,635
2017-08-27T10:02:21.626Z,438
2017-08-27T10:03:23.164Z,489
2017-08-27T10:04:24.711Z,675
2017-08-27T10:05:26.266Z,675
2017-08-27T10:06:27.781Z,585
2017-08-27T10:07:29.407Z,534
2017-08-27T10:08:30.927Z,416
2017-08-27T10:09:32.525Z,399
2017-08-27T10:10:34.214Z,427
2017-08-27T10:11:35.856Z,427
2017-08-27T10:12:37.411Z,405
2017-08-27T10:13:39.023Z,556
2017-08-27T10:14:40.606Z,601
2017-08-27T10:15:42.181Z,506
2017-08-27T10:16:43.842Z,444
2017-08-27T10:17:45.423Z,427
2017-08-27T10:18:47.002Z,540
2017-08-27T10:19:48.592Z,421
2017-08-27T10:20:50.283Z,416
2017-08-27T10:21:51.843Z,326
2017-08-27T10:22:53.516Z,388
2017-08-27T10:23:55.143Z,331
2017-08-27T10:24:56.756Z,427
2017-08-27T10:25:58.316Z,534
2017-08-27T10:26:59.971Z,450
2017-08-27T10:28:01.635Z,506
2017-08-27T10:29:03.252Z,630
2017-08-27T10:30:04.798Z,663
2017-08-27T10:31:06.355Z,658
2017-08-27T10:32:07.970Z,646
2017-08-27T10:33:09.579Z,601
2017-08-27T10:34:11.160Z,410
2017-08-27T10:35:12.882Z,320
2017-08-27T10:36:14.537Z,315
2017-08-27T10:37:16.048Z,343
2017-08-27T10:38:17.640Z,399
2017-08-27T10:39:19.241Z,483
2017-08-27T10:40:20.752Z,461
2017-08-27T10:41:22.316Z,506
2017-08-27T10:42:23.942Z,590
2017-08-27T10:43:25.464Z,573
2017-08-27T10:44:27.103Z,455
2017-08-27T10:45:28.773Z,601
2017-08-27T10:46:30.311Z,534
2017-08-27T10:47:31.891Z,556
2017-08-27T10:48:33.472Z,534
2017-08-27T10:49:35.097Z,551
2017-08-27T10:50:36.622Z,534
2017-08-27T10:51:38.209Z,489
2017-08-27T10:52:39.905Z,540
2017-08-27T10:53:41.462Z,562
2017-08-27T10:54:43.133Z,630
2017-08-27T10:55:44.692Z,652
2017-08-27T10:56:46.237Z,663
2017-08-27T10:57:47.862Z,669
2017-08-27T10:58:49.472Z,680
2017-08-27T10:59:51.099Z,703
2017-08-27T11:00:52.727Z,798
2017-08-27T11:01:54.256Z,528
2017-08-27T11:02:55.886Z,523
2017-08-27T11:03:57.500Z,466
2017-08-27T11:04:59.162Z,680
2017-08-27T11:06:00.814Z,1794
2017-08-27T11:07:02.530Z,1816
2017-08-27T11:08:04.040Z,1721
2017-08-27T11:09:05.614Z,1800
2017-08-27T11:10:07.249Z,1760
2017-08-27T11:11:08.833Z,1755
2017-08-27T11:12:10.499Z,1755
2017-08-27T11:13:12.199Z,1738
2017-08-27T11:14:13.697Z,1648
2017-08-27T11:15:15.290Z,1816
2017-08-27T11:16:16.935Z,1800
2017-08-27T11:17:18.520Z,1051
2017-08-27T11:18:20.098Z,348
2017-08-27T11:19:21.637Z,298
2017-08-27T11:20:23.172Z,343
2017-08-27T11:21:24.762Z,1749
2017-08-27T11:22:26.323Z,900
2017-08-27T11:23:27.912Z,1614
2017-08-27T11:24:29.413Z,1811
2017-08-27T11:25:31.009Z,1833
2017-08-27T11:26:32.649Z,1704
2017-08-27T11:27:34.194Z,1884
2017-08-27T11:28:35.791Z,1788
2017-08-27T11:29:37.348Z,1856
2017-08-27T11:30:38.944Z,1755
2017-08-27T11:31:40.507Z,1721
2017-08-27T11:32:42.112Z,1845
2017-08-27T11:33:43.756Z,1935
2017-08-27T11:34:45.358Z,1873
2017-08-27T11:35:46.965Z,1816
2017-08-27T11:36:48.576Z,1310
2017-08-27T11:37:50.149Z,1771
2017-08-27T11:38:51.729Z,1766
2017-08-27T11:39:53.244Z,1850
2017-08-27T11:40:54.818Z,1918
2017-08-27T11:41:56.354Z,1850
2017-08-27T11:42:57.952Z,1845
2017-08-27T11:43:59.474Z,1833
2017-08-27T11:45:01.089Z,1850
2017-08-27T11:46:02.685Z,1845
2017-08-27T11:47:04.228Z,1839
2017-08-27T11:48:05.875Z,1771
2017-08-27T11:49:07.583Z,1800
2017-08-27T11:50:09.122Z,1850
2017-08-27T11:51:10.735Z,1794
2017-08-27T11:52:12.345Z,1760
2017-08-27T11:53:13.980Z,1788
2017-08-27T11:54:15.531Z,1681
2017-08-27T11:55:17.166Z,1681
2017-08-27T11:56:18.831Z,1642
2017-08-27T11:57:20.435Z,1670
2017-08-27T11:58:22.027Z,1479
2017-08-27T11:59:23.593Z,1074
2017-08-27T12:00:25.237Z,871
2017-08-27T12:01:26.839Z,877
2017-08-27T12:02:28.415Z,888
2017-08-27T12:03:29.930Z,883
2017-08-27T12:04:31.482Z,883
2017-08-27T12:05:33.092Z,1074
2017-08-27T12:06:34.629Z,1496
2017-08-27T12:07:36.189Z,1591
2017-08-27T12:08:37.783Z,1665
2017-08-27T12:09:39.315Z,1580
2017-08-27T12:10:40.876Z,1608
2017-08-27T12:11:42.437Z,1642
2017-08-27T12:12:44.042Z,1620
2017-08-27T12:13:45.639Z,1524
2017-08-27T12:14:47.259Z,1580
2017-08-27T12:15:48.844Z,1687
2017-08-27T12:16:50.387Z,1620
2017-08-27T12:17:51.989Z,1603
2017-08-27T12:18:53.637Z,1659
2017-08-27T12:19:55.165Z,1631
2017-08-27T12:20:56.781Z,1254
2017-08-27T12:21:58.354Z,691
2017-08-27T12:22:59.935Z,1164
2017-08-27T12:24:01.621Z,590
2017-08-27T12:25:03.170Z,444
2017-08-27T12:26:04.730Z,511
2017-08-27T12:27:06.374Z,1552
2017-08-27T12:28:07.989Z,1530
2017-08-27T12:29:09.612Z,1586
2017-08-27T12:30:11.262Z,1608
2017-08-27T12:31:12.844Z,1625
2017-08-27T12:32:14.386Z,1603
2017-08-27T12:33:15.953Z,1411
2017-08-27T12:34:17.567Z,1546
2017-08-27T12:35:19.141Z,1614
2017-08-27T12:36:20.813Z,1125
2017-08-27T12:37:22.419Z,1597
2017-08-27T12:38:23.970Z,753
2017-08-27T12:39:25.521Z,1490
2017-08-27T12:40:27.093Z,1170
2017-08-27T12:41:28.640Z,1395
2017-08-27T12:42:30.315Z,483
2017-08-27T12:43:31.886Z,410
2017-08-27T12:44:33.449Z,360
2017-08-27T12:45:35.401Z,360
2017-08-27T12:46:36.976Z,427
2017-08-27T12:47:38.666Z,495
2017-08-27T12:48:40.229Z,1316
2017-08-27T12:49:42.373Z,1485
2017-08-27T12:50:43.914Z,1507
2017-08-27T12:51:45.432Z,1530
2017-08-27T12:52:47.074Z,1417
2017-08-27T12:53:48.794Z,618
2017-08-27T12:54:50.407Z,1271
2017-08-27T12:55:52.464Z,562
2017-08-27T12:56:54.050Z,573
2017-08-27T12:57:55.575Z,489
2017-08-27T12:58:57.249Z,410
2017-08-27T12:59:58.994Z,365
2017-08-27T13:01:00.637Z,365
2017-08-27T13:02:02.153Z,382
2017-08-27T13:03:03.746Z,399
2017-08-27T13:04:05.344Z,444
2017-08-27T13:05:06.940Z,635
2017-08-27T13:06:08.630Z,1485
2017-08-27T13:07:10.178Z,1423
2017-08-27T13:08:11.775Z,1552
2017-08-27T13:09:14.312Z,1513
2017-08-27T13:10:17.020Z,1569
2017-08-27T13:11:19.402Z,1636
2017-08-27T13:12:21.951Z,1620
2017-08-27T13:13:23.622Z,1614
2017-08-27T13:14:25.771Z,1642
2017-08-27T13:15:27.981Z,1591
2017-08-27T13:16:30.216Z,1710
2017-08-27T13:17:32.636Z,1710
2017-08-27T13:18:34.546Z,1659
2017-08-27T13:19:37.283Z,1687
2017-08-27T13:20:38.894Z,1648
2017-08-27T13:21:41.466Z,1625
2017-08-27T13:22:44.188Z,1665
2017-08-27T13:23:46.969Z,1670
2017-08-27T13:24:49.543Z,1642
2017-08-27T13:25:52.503Z,517
2017-08-27T13:26:54.605Z,450
2017-08-27T13:27:57.287Z,888
2017-08-27T13:28:59.668Z,1051
2017-08-27T13:30:01.878Z,1501
2017-08-27T13:31:04.227Z,601
2017-08-27T13:32:06.985Z,1411
2017-08-27T13:33:08.754Z,826
2017-08-27T13:34:11.321Z,1411
2017-08-27T13:35:13.562Z,427
2017-08-27T13:36:16.397Z,365
2017-08-27T13:37:18.125Z,399
2017-08-27T13:38:20.538Z,1423
2017-08-27T13:39:23.024Z,1091
2017-08-27T13:40:25.627Z,888
2017-08-27T13:41:27.075Z,416
2017-08-27T13:42:29.617Z,388
2017-08-27T13:43:31.321Z,1507
2017-08-27T13:44:33.902Z,433
2017-08-27T13:45:36.750Z,596
2017-08-27T13:46:38.774Z,1203
2017-08-27T13:47:40.660Z,1541
2017-08-27T13:48:42.213Z,1541
2017-08-27T13:49:43.856Z,1541
2017-08-27T13:50:45.487Z,663
2017-08-27T13:51:47.148Z,416
2017-08-27T13:52:48.684Z,1631
2017-08-27T13:53:50.274Z,1687
2017-08-27T13:54:51.917Z,1676
2017-08-27T13:55:53.514Z,1608
2017-08-27T13:56:55.016Z,646
2017-08-27T13:57:56.615Z,1687
2017-08-27T13:58:58.155Z,1665
2017-08-27T13:59:59.784Z,1648
2017-08-27T14:01:01.347Z,1608
2017-08-27T14:02:02.887Z,1620
2017-08-27T14:03:04.471Z,1648
2017-08-27T14:04:06.027Z,950
2017-08-27T14:05:07.555Z,1113
2017-08-27T14:06:09.067Z,1620
2017-08-27T14:07:10.667Z,1541
2017-08-27T14:08:12.229Z,1586
2017-08-27T14:09:13.894Z,680
2017-08-27T14:10:15.574Z,590
2017-08-27T14:11:17.095Z,1546
2017-08-27T14:12:19.116Z,573
2017-08-27T14:13:20.679Z,978
2017-08-27T14:14:22.308Z,1625
2017-08-27T14:15:23.830Z,1608
2017-08-27T14:16:25.426Z,1670
2017-08-27T14:17:27.284Z,1681
2017-08-27T14:18:28.813Z,1681
2017-08-27T14:19:30.697Z,585
2017-08-27T14:20:32.290Z,376
2017-08-27T14:21:33.875Z,438
2017-08-27T14:22:35.783Z,410
2017-08-27T14:23:37.491Z,562
2017-08-27T14:24:39.163Z,1563